Time;durP1;ratioP1;P1;durP2;ratioP2;P2;SDS_P1;SDS_P2;PMS_P1;PMS_P2;Temp;Humidity;BMP_temperature;BMP_pressure;BME280_temperature;BME280_humidity;BME280_pressure;Samples;Min_cycle;Max_cycle;Signal;HPM_P1;HPM_P2
2024/04/06 00:00:08;;;;;;;26.08;4.57;;;;;;;;;;4965400;28;20049;-66
2024/04/06 00:02:34;;;;;;;22.33;4.63;;;;;;;;;;4963768;28;20053;-66
2024/04/06 00:05:00;;;;;;;15.63;3.20;;;;;;;;;;4947542;28;20050;-65
2024/04/06 00:07:27;;;;;;;20.50;4.05;;;;;;;;;;4958504;28;20118;-66
2024/04/06 00:09:54;;;;;;;22.65;4.13;;;;;;;;;;4944920;28;20419;-65
2024/04/06 00:12:20;;;;;;;13.48;3.40;;;;;;;;;;4942987;28;20046;-66
2024/04/06 00:14:46;;;;;;;17.15;3.65;;;;;;;;;;4945924;28;20123;-66
2024/04/06 00:17:12;;;;;;;16.90;3.65;;;;;;;;;;4943836;28;20094;-66
2024/04/06 00:19:38;;;;;;;17.63;3.60;;;;;;;;;;4926941;28;20051;-66
2024/04/06 00:22:05;;;;;;;18.50;3.35;;;;;;;;;;4951881;28;20134;-66
2024/04/06 00:24:31;;;;;;;24.35;4.45;;;;;;;;;;4942697;28;20270;-66
2024/04/06 00:26:58;;;;;;;15.60;3.55;;;;;;;;;;4942029;28;20063;-66
2024/04/06 00:29:24;;;;;;;18.55;3.70;;;;;;;;;;4946447;28;20178;-66
2024/04/06 00:31:51;;;;;;;26.02;4.57;;;;;;;;;;4943549;28;20107;-66
2024/04/06 00:34:17;;;;;;;21.38;4.18;;;;;;;;;;4947081;28;20269;-66
2024/04/06 00:36:43;;;;;;;16.02;3.55;;;;;;;;;;4945840;28;20065;-66
2024/04/06 00:39:09;;;;;;;18.23;3.63;;;;;;;;;;4944801;28;20435;-66
2024/04/06 00:41:35;;;;;;;17.33;4.30;;;;;;;;;;4942453;28;20180;-66
2024/04/06 00:44:02;;;;;;;21.52;4.50;;;;;;;;;;4945146;28;20039;-66
2024/04/06 00:46:28;;;;;;;13.10;3.83;;;;;;;;;;4940638;28;20051;-66
2024/04/06 00:48:55;;;;;;;21.70;3.97;;;;;;;;;;4943787;28;20522;-66
2024/04/06 00:51:21;;;;;;;19.90;4.05;;;;;;;;;;4944184;28;20055;-66
2024/04/06 00:53:47;;;;;;;20.77;3.35;;;;;;;;;;4942993;28;20594;-66
2024/04/06 00:56:14;;;;;;;12.40;3.65;;;;;;;;;;4962383;28;20130;-66
2024/04/06 00:58:41;;;;;;;19.27;3.83;;;;;;;;;;4942571;28;20525;-66
2024/04/06 01:01:08;;;;;;;25.10;4.38;;;;;;;;;;4945081;28;20051;-65
2024/04/06 01:03:34;;;;;;;24.60;3.47;;;;;;;;;;4943230;28;20059;-65
2024/04/06 01:06:00;;;;;;;16.52;4.00;;;;;;;;;;4944348;28;20055;-66
2024/04/06 01:08:26;;;;;;;16.48;3.50;;;;;;;;;;4962837;28;20082;-66
2024/04/06 01:10:53;;;;;;;15.77;3.47;;;;;;;;;;4942577;28;20057;-66
2024/04/06 01:13:19;;;;;;;16.75;3.08;;;;;;;;;;4961438;28;20511;-66
2024/04/06 01:15:47;;;;;;;15.05;3.33;;;;;;;;;;4945073;28;20102;-66
2024/04/06 01:18:13;;;;;;;21.73;3.90;;;;;;;;;;4962247;28;20058;-66
2024/04/06 01:20:43;;;;;;;14.30;3.53;;;;;;;;;;4945560;28;20042;-66
2024/04/06 01:23:12;;;;;;;20.80;4.63;;;;;;;;;;4961353;28;20096;-66
2024/04/06 01:25:38;;;;;;;20.70;4.00;;;;;;;;;;4946223;28;20129;-66
2024/04/06 01:28:04;;;;;;;18.23;3.95;;;;;;;;;;4963290;28;20058;-66
2024/04/06 01:30:30;;;;;;;23.00;3.80;;;;;;;;;;4960731;28;20050;-66
2024/04/06 01:32:58;;;;;;;17.55;3.95;;;;;;;;;;4946760;28;20493;-66
2024/04/06 01:35:24;;;;;;;15.60;3.58;;;;;;;;;;4962872;28;20500;-66
2024/04/06 01:37:50;;;;;;;16.42;4.18;;;;;;;;;;4960793;28;20043;-66
2024/04/06 01:40:16;;;;;;;22.77;4.03;;;;;;;;;;4952056;28;20082;-67
2024/04/06 01:42:42;;;;;;;17.75;4.53;;;;;;;;;;4964577;28;20200;-66
2024/04/06 01:45:09;;;;;;;20.33;3.60;;;;;;;;;;4958809;28;20566;-66
2024/04/06 01:47:35;;;;;;;24.45;3.60;;;;;;;;;;4945953;28;20045;-66
2024/04/06 01:50:02;;;;;;;21.20;4.00;;;;;;;;;;4963764;28;20133;-66
2024/04/06 01:52:29;;;;;;;14.43;4.30;;;;;;;;;;4947520;28;20097;-66
2024/04/06 01:54:55;;;;;;;22.85;3.92;;;;;;;;;;4943130;28;20043;-66
2024/04/06 01:57:21;;;;;;;13.15;4.05;;;;;;;;;;4965520;28;20417;-66
2024/04/06 01:59:47;;;;;;;14.70;4.00;;;;;;;;;;4965551;28;20137;-66
2024/04/06 02:02:14;;;;;;;19.40;3.72;;;;;;;;;;4965653;28;20746;-66
2024/04/06 02:04:40;;;;;;;16.17;4.70;;;;;;;;;;4946451;28;20039;-66
2024/04/06 02:07:08;;;;;;;20.33;4.88;;;;;;;;;;4941467;28;20118;-66
2024/04/06 02:09:34;;;;;;;19.77;4.63;;;;;;;;;;4944225;28;20047;-66
2024/04/06 02:12:00;;;;;;;16.17;4.75;;;;;;;;;;4943724;28;20496;-66
2024/04/06 02:14:26;;;;;;;14.88;4.50;;;;;;;;;;4942212;29;20632;-66
2024/04/06 02:16:53;;;;;;;12.30;4.03;;;;;;;;;;4938274;29;20062;-66
2024/04/06 02:19:19;;;;;;;17.65;5.60;;;;;;;;;;4946931;29;20127;-66
2024/04/06 02:21:45;;;;;;;17.65;5.13;;;;;;;;;;4943924;28;20523;-66
2024/04/06 02:24:11;;;;;;;16.42;5.07;;;;;;;;;;4943379;28;20130;-66
2024/04/06 02:26:37;;;;;;;16.38;4.97;;;;;;;;;;4939224;29;20047;-66
2024/04/06 02:29:04;;;;;;;24.48;4.90;;;;;;;;;;4944400;29;20058;-66
2024/04/06 02:31:30;;;;;;;27.27;6.05;;;;;;;;;;4932111;28;20050;-66
2024/04/06 02:33:56;;;;;;;19.27;4.70;;;;;;;;;;4936653;29;20615;-66
2024/04/06 02:36:22;;;;;;;27.05;5.10;;;;;;;;;;4941947;28;20035;-66
2024/04/06 02:38:48;;;;;;;23.95;5.47;;;;;;;;;;4945865;29;20134;-66
2024/04/06 02:41:15;;;;;;;17.08;5.28;;;;;;;;;;4944979;28;21318;-66
2024/04/06 02:43:41;;;;;;;21.58;5.43;;;;;;;;;;4945669;29;20043;-66
2024/04/06 02:46:07;;;;;;;16.23;4.60;;;;;;;;;;4944784;29;20055;-66
2024/04/06 02:48:33;;;;;;;16.02;5.10;;;;;;;;;;4944386;29;20039;-66
2024/04/06 02:50:59;;;;;;;22.85;6.18;;;;;;;;;;4944750;29;20051;-66
2024/04/06 02:53:26;;;;;;;14.80;4.72;;;;;;;;;;4944203;29;20177;-66
2024/04/06 02:55:52;;;;;;;16.58;5.22;;;;;;;;;;4941818;29;20056;-66
2024/04/06 02:58:18;;;;;;;25.42;5.32;;;;;;;;;;4943181;29;20043;-66
2024/04/06 03:00:44;;;;;;;19.48;4.72;;;;;;;;;;4942726;29;20046;-66
2024/04/06 03:03:11;;;;;;;21.63;5.97;;;;;;;;;;4944509;29;20051;-66
2024/04/06 03:05:37;;;;;;;18.45;6.38;;;;;;;;;;4943833;29;20051;-66
2024/04/06 03:08:03;;;;;;;17.88;4.70;;;;;;;;;;4960865;28;20090;-66
2024/04/06 03:10:29;;;;;;;20.17;6.45;;;;;;;;;;4943800;28;20063;-66
2024/04/06 03:12:55;;;;;;;20.17;5.10;;;;;;;;;;4944061;29;20834;-66
2024/04/06 03:15:23;;;;;;;18.42;4.75;;;;;;;;;;4948901;29;20051;-66
2024/04/06 03:17:49;;;;;;;13.32;4.25;;;;;;;;;;4943055;29;20074;-66
2024/04/06 03:20:16;;;;;;;17.17;5.18;;;;;;;;;;4948840;29;20051;-66
2024/04/06 03:22:43;;;;;;;22.08;5.90;;;;;;;;;;4944101;29;20058;-66
2024/04/06 03:25:09;;;;;;;10.73;4.82;;;;;;;;;;4934189;28;20043;-67
2024/04/06 03:27:36;;;;;;;18.80;5.32;;;;;;;;;;4944388;29;20203;-66
2024/04/06 03:30:02;;;;;;;18.33;5.55;;;;;;;;;;4944597;29;20046;-66
2024/04/06 03:32:28;;;;;;;22.27;6.47;;;;;;;;;;4945365;29;20372;-66
2024/04/06 03:34:54;;;;;;;16.70;6.22;;;;;;;;;;4940256;29;20123;-66
2024/04/06 03:37:20;;;;;;;17.08;5.93;;;;;;;;;;4942455;29;20134;-66
2024/04/06 03:39:46;;;;;;;16.77;6.57;;;;;;;;;;4944572;28;20156;-66
2024/04/06 03:42:13;;;;;;;16.23;6.20;;;;;;;;;;4944340;29;20055;-66
2024/04/06 03:44:39;;;;;;;26.08;7.35;;;;;;;;;;4946165;28;20066;-66
2024/04/06 03:47:06;;;;;;;24.48;6.18;;;;;;;;;;4946164;29;20079;-66
2024/04/06 03:49:32;;;;;;;21.17;6.70;;;;;;;;;;4948280;28;20047;-67
2024/04/06 03:51:59;;;;;;;27.45;7.03;;;;;;;;;;4944232;28;20051;-66
2024/04/06 03:54:25;;;;;;;23.85;6.78;;;;;;;;;;4948410;29;20065;-66
2024/04/06 03:56:51;;;;;;;17.00;6.57;;;;;;;;;;4945945;29;20055;-66
2024/04/06 03:59:17;;;;;;;22.63;6.68;;;;;;;;;;4945939;29;20039;-66
2024/04/06 04:01:44;;;;;;;19.45;6.10;;;;;;;;;;4947141;29;20070;-66
2024/04/06 04:04:10;;;;;;;16.80;5.85;;;;;;;;;;4947361;29;20055;-66
2024/04/06 04:06:36;;;;;;;23.20;7.53;;;;;;;;;;4948199;28;20484;-66
2024/04/06 04:09:02;;;;;;;28.67;7.32;;;;;;;;;;4967274;28;20066;-66
2024/04/06 04:11:28;;;;;;;23.27;7.07;;;;;;;;;;4949283;28;20146;-66
2024/04/06 04:13:55;;;;;;;25.05;7.13;;;;;;;;;;4954927;28;20070;-67
2024/04/06 04:16:21;;;;;;;25.45;7.70;;;;;;;;;;4967860;28;20173;-66
2024/04/06 04:18:47;;;;;;;22.98;6.82;;;;;;;;;;4967543;28;20156;-66
2024/04/06 04:21:13;;;;;;;19.25;6.60;;;;;;;;;;4966226;28;20050;-66
2024/04/06 04:23:39;;;;;;;23.38;7.60;;;;;;;;;;4965592;28;20126;-66
2024/04/06 04:26:06;;;;;;;14.18;6.18;;;;;;;;;;4966244;28;20055;-66
2024/04/06 04:28:32;;;;;;;18.38;6.93;;;;;;;;;;4967818;28;20399;-66
2024/04/06 04:30:58;;;;;;;19.27;7.82;;;;;;;;;;4968134;28;20123;-66
2024/04/06 04:33:24;;;;;;;18.25;7.18;;;;;;;;;;4967650;28;20043;-66
2024/04/06 04:35:50;;;;;;;23.20;8.02;;;;;;;;;;4948171;28;20495;-66
2024/04/06 04:38:16;;;;;;;14.60;6.22;;;;;;;;;;4966970;28;20135;-67
2024/04/06 04:40:43;;;;;;;19.38;7.20;;;;;;;;;;4957587;28;20552;-67
2024/04/06 04:43:09;;;;;;;22.90;7.20;;;;;;;;;;4949781;28;20120;-66
2024/04/06 04:45:35;;;;;;;25.80;8.60;;;;;;;;;;4948633;28;20453;-66
2024/04/06 04:48:01;;;;;;;20.35;6.57;;;;;;;;;;4966520;28;20047;-66
2024/04/06 04:50:27;;;;;;;22.98;6.80;;;;;;;;;;4950449;28;20491;-66
2024/04/06 04:52:54;;;;;;;20.85;7.93;;;;;;;;;;4950384;28;20088;-66
2024/04/06 04:55:20;;;;;;;17.83;6.97;;;;;;;;;;4966378;28;20139;-66
2024/04/06 04:57:46;;;;;;;22.73;7.53;;;;;;;;;;4949457;28;20047;-66
2024/04/06 05:00:13;;;;;;;18.52;7.82;;;;;;;;;;4967177;28;20042;-66
2024/04/06 05:02:39;;;;;;;20.25;8.57;;;;;;;;;;4966412;28;20046;-66
2024/04/06 05:05:05;;;;;;;19.60;8.32;;;;;;;;;;4948166;28;20051;-66
2024/04/06 05:07:31;;;;;;;16.70;9.02;;;;;;;;;;4967728;28;20078;-66
2024/04/06 05:09:58;;;;;;;17.63;9.68;;;;;;;;;;4941614;28;20054;-66
2024/04/06 05:12:24;;;;;;;17.77;10.50;;;;;;;;;;4948664;28;20495;-66
2024/04/06 05:14:50;;;;;;;24.42;11.50;;;;;;;;;;4967797;28;20127;-66
2024/04/06 05:17:18;;;;;;;26.17;11.43;;;;;;;;;;4945643;28;20046;-66
2024/04/06 05:19:44;;;;;;;22.38;13.02;;;;;;;;;;4966587;28;20435;-66
2024/04/06 05:22:10;;;;;;;22.90;13.90;;;;;;;;;;4950141;28;20054;-67
2024/04/06 05:24:36;;;;;;;28.63;13.25;;;;;;;;;;4966083;28;20043;-66
2024/04/06 05:27:03;;;;;;;26.08;14.35;;;;;;;;;;4967324;28;20114;-66
2024/04/06 05:29:29;;;;;;;24.25;14.52;;;;;;;;;;4964278;28;20390;-66
2024/04/06 05:31:57;;;;;;;28.35;15.60;;;;;;;;;;4964352;28;20086;-67
2024/04/06 05:34:23;;;;;;;25.05;14.45;;;;;;;;;;4963780;28;20067;-66
2024/04/06 05:36:50;;;;;;;27.55;14.90;;;;;;;;;;4965613;28;20073;-63
2024/04/06 05:39:16;;;;;;;26.23;14.93;;;;;;;;;;4965986;28;20038;-66
2024/04/06 05:41:43;;;;;;;25.90;15.27;;;;;;;;;;4944866;28;20072;-66
2024/04/06 05:44:09;;;;;;;29.38;15.10;;;;;;;;;;4963419;28;20069;-66
2024/04/06 05:46:35;;;;;;;24.13;15.00;;;;;;;;;;4965211;28;20097;-67
2024/04/06 05:49:02;;;;;;;29.83;16.73;;;;;;;;;;4964130;28;20050;-67
2024/04/06 05:51:29;;;;;;;23.08;13.60;;;;;;;;;;4948063;28;20082;-67
2024/04/06 05:53:56;;;;;;;26.58;14.52;;;;;;;;;;4963869;28;20047;-67
2024/04/06 05:56:22;;;;;;;24.60;14.90;;;;;;;;;;4948925;28;20042;-66
2024/04/06 05:58:48;;;;;;;23.58;14.18;;;;;;;;;;4946981;28;20054;-66
2024/04/06 06:01:14;;;;;;;21.80;13.20;;;;;;;;;;4948342;28;20367;-67
2024/04/06 06:03:42;;;;;;;26.95;13.40;;;;;;;;;;4945275;28;21645;-66
2024/04/06 06:06:08;;;;;;;23.98;12.88;;;;;;;;;;4950638;28;20034;-67
2024/04/06 06:08:34;;;;;;;21.85;13.60;;;;;;;;;;4947976;28;20463;-67
2024/04/06 06:11:00;;;;;;;25.23;13.55;;;;;;;;;;4963340;28;20070;-67
2024/04/06 06:13:26;;;;;;;19.17;12.60;;;;;;;;;;4964963;28;20046;-66
2024/04/06 06:15:53;;;;;;;19.20;12.20;;;;;;;;;;4966482;28;20407;-67
2024/04/06 06:18:19;;;;;;;19.33;11.95;;;;;;;;;;4964695;28;20047;-67
2024/04/06 06:20:45;;;;;;;20.38;11.05;;;;;;;;;;4962270;28;20422;-66
2024/04/06 06:23:11;;;;;;;16.45;9.68;;;;;;;;;;4965729;28;20046;-66
2024/04/06 06:25:38;;;;;;;18.83;10.43;;;;;;;;;;4962901;28;20043;-65
2024/04/06 06:28:05;;;;;;;15.43;10.27;;;;;;;;;;4962527;28;20055;-65
2024/04/06 06:30:31;;;;;;;15.15;9.52;;;;;;;;;;4964535;28;20855;-67
2024/04/06 06:32:57;;;;;;;17.42;9.45;;;;;;;;;;4963487;28;20113;-66
2024/04/06 06:35:24;;;;;;;12.07;8.50;;;;;;;;;;4965626;28;20329;-67
2024/04/06 06:37:50;;;;;;;14.57;9.40;;;;;;;;;;4965824;28;20043;-67
2024/04/06 06:40:17;;;;;;;12.02;7.90;;;;;;;;;;4964397;28;20054;-67
2024/04/06 06:42:43;;;;;;;16.83;7.63;;;;;;;;;;4964257;28;20047;-66
2024/04/06 06:45:09;;;;;;;15.05;8.82;;;;;;;;;;4964255;28;20051;-67
2024/04/06 06:47:35;;;;;;;15.95;9.60;;;;;;;;;;4963944;28;20054;-67
2024/04/06 06:50:02;;;;;;;10.68;6.85;;;;;;;;;;4965416;28;20104;-67
2024/04/06 06:52:29;;;;;;;12.63;7.50;;;;;;;;;;4964265;28;20774;-67
2024/04/06 06:54:55;;;;;;;12.55;7.72;;;;;;;;;;4948157;28;20049;-67
2024/04/06 06:57:22;;;;;;;13.65;6.90;;;;;;;;;;4963319;28;20070;-67
2024/04/06 06:59:48;;;;;;;11.25;6.60;;;;;;;;;;4948418;28;20082;-68
2024/04/06 07:02:14;;;;;;;12.88;7.20;;;;;;;;;;4946391;28;20051;-67
2024/04/06 07:04:41;;;;;;;12.18;6.95;;;;;;;;;;4964016;28;20392;-67
2024/04/06 07:07:07;;;;;;;12.40;6.38;;;;;;;;;;4964936;28;20085;-67
2024/04/06 07:09:33;;;;;;;13.10;6.30;;;;;;;;;;4947254;28;20091;-67
2024/04/06 07:11:59;;;;;;;10.45;6.05;;;;;;;;;;4964876;28;20043;-67
2024/04/06 07:14:25;;;;;;;9.38;5.68;;;;;;;;;;4964498;28;20046;-67
2024/04/06 07:16:52;;;;;;;11.68;5.75;;;;;;;;;;4964359;28;20189;-67
2024/04/06 07:19:18;;;;;;;11.80;5.68;;;;;;;;;;4945914;28;20039;-66
2024/04/06 07:21:44;;;;;;;11.88;5.65;;;;;;;;;;4963709;28;20087;-67
2024/04/06 07:24:10;;;;;;;14.35;5.95;;;;;;;;;;4970026;28;20043;-65
2024/04/06 07:26:36;;;;;;;10.68;4.80;;;;;;;;;;4954021;28;20047;-65
2024/04/06 07:29:03;;;;;;;13.27;5.60;;;;;;;;;;4970772;28;20031;-65
2024/04/06 07:31:29;;;;;;;11.38;5.47;;;;;;;;;;4971456;28;20054;-65
2024/04/06 07:33:55;;;;;;;10.77;4.97;;;;;;;;;;4972085;28;20039;-65
2024/04/06 07:36:21;;;;;;;10.05;4.97;;;;;;;;;;4971183;28;20039;-65
2024/04/06 07:38:47;;;;;;;6.55;4.25;;;;;;;;;;4972328;28;20058;-65
2024/04/06 07:41:13;;;;;;;8.63;4.00;;;;;;;;;;4971678;28;20414;-65
2024/04/06 07:43:40;;;;;;;7.72;4.18;;;;;;;;;;4971271;28;20143;-66
2024/04/06 07:46:06;;;;;;;8.13;4.10;;;;;;;;;;4970821;28;20073;-65
2024/04/06 07:48:32;;;;;;;7.40;3.78;;;;;;;;;;4954391;28;20545;-65
2024/04/06 07:50:58;;;;;;;8.55;3.45;;;;;;;;;;4952320;28;20047;-65
2024/04/06 07:53:24;;;;;;;6.03;3.50;;;;;;;;;;4951711;28;20047;-66
2024/04/06 07:55:51;;;;;;;9.23;3.83;;;;;;;;;;4972050;28;20498;-65
2024/04/06 07:58:17;;;;;;;8.15;3.38;;;;;;;;;;4967195;28;20038;-66
2024/04/06 08:00:43;;;;;;;6.90;3.08;;;;;;;;;;4971317;28;20128;-66
2024/04/06 08:03:09;;;;;;;7.45;3.10;;;;;;;;;;4952820;28;20467;-66
2024/04/06 08:05:36;;;;;;;7.00;3.17;;;;;;;;;;4953211;28;20620;-65
2024/04/06 08:08:03;;;;;;;5.53;3.33;;;;;;;;;;4970848;28;20051;-66
2024/04/06 08:10:29;;;;;;;8.15;3.40;;;;;;;;;;4952320;28;20046;-65
2024/04/06 08:12:55;;;;;;;7.65;2.88;;;;;;;;;;4953198;28;20039;-65
2024/04/06 08:15:22;;;;;;;6.15;2.85;;;;;;;;;;4970326;28;20503;-65
2024/04/06 08:17:48;;;;;;;7.07;2.63;;;;;;;;;;4952961;28;20098;-65
2024/04/06 08:20:16;;;;;;;6.25;2.83;;;;;;;;;;4970062;28;20121;-65
2024/04/06 08:22:43;;;;;;;6.38;2.90;;;;;;;;;;4970015;28;20118;-66
2024/04/06 08:25:10;;;;;;;7.50;2.67;;;;;;;;;;4952910;28;20046;-65
2024/04/06 08:27:37;;;;;;;5.88;2.35;;;;;;;;;;4969241;28;20400;-65
2024/04/06 08:30:05;;;;;;;5.28;2.55;;;;;;;;;;4970691;28;20064;-65
2024/04/06 08:32:32;;;;;;;5.68;2.35;;;;;;;;;;4952677;28;20439;-65
2024/04/06 08:34:58;;;;;;;6.93;2.33;;;;;;;;;;4952501;28;20050;-65
2024/04/06 08:37:25;;;;;;;7.20;2.42;;;;;;;;;;4970817;28;20499;-65
2024/04/06 08:39:51;;;;;;;4.95;2.20;;;;;;;;;;4970097;28;20050;-66
2024/04/06 08:42:18;;;;;;;7.88;2.55;;;;;;;;;;4950445;28;20106;-66
2024/04/06 08:44:44;;;;;;;6.32;2.20;;;;;;;;;;4970283;28;20418;-66
2024/04/06 08:47:12;;;;;;;3.83;2.10;;;;;;;;;;4970190;28;20149;-66
2024/04/06 08:49:39;;;;;;;5.40;2.10;;;;;;;;;;4952186;28;20109;-65
2024/04/06 08:52:05;;;;;;;6.13;2.30;;;;;;;;;;4950992;28;20354;-66
2024/04/06 08:54:32;;;;;;;6.65;1.88;;;;;;;;;;4949945;28;20087;-66
2024/04/06 08:57:00;;;;;;;4.43;1.83;;;;;;;;;;4953557;28;20086;-65
2024/04/06 08:59:26;;;;;;;6.15;1.88;;;;;;;;;;4970371;28;20039;-66
2024/04/06 09:01:52;;;;;;;5.85;2.30;;;;;;;;;;4952520;28;20043;-66
2024/04/06 09:04:19;;;;;;;8.27;2.15;;;;;;;;;;4969825;28;20126;-65
2024/04/06 09:06:45;;;;;;;6.22;1.88;;;;;;;;;;4969412;28;20066;-66
2024/04/06 09:09:12;;;;;;;7.20;2.40;;;;;;;;;;4969472;28;20039;-65
2024/04/06 09:11:38;;;;;;;5.30;2.10;;;;;;;;;;4968126;28;20049;-65
2024/04/06 09:14:05;;;;;;;5.20;1.83;;;;;;;;;;4953291;28;20121;-65
2024/04/06 09:16:31;;;;;;;6.38;2.50;;;;;;;;;;4968417;28;20047;-66
2024/04/06 09:18:57;;;;;;;5.75;3.13;;;;;;;;;;4970150;28;20110;-65
2024/04/06 09:21:23;;;;;;;7.75;1.80;;;;;;;;;;4967346;28;20051;-65
2024/04/06 09:23:51;;;;;;;5.95;1.90;;;;;;;;;;4953159;28;20525;-66
2024/04/06 09:26:24;;;;;;;7.82;1.77;;;;;;;;;;4951425;28;20054;-66
2024/04/06 09:28:52;;;;;;;4.78;2.00;;;;;;;;;;4969284;28;20084;-65
2024/04/06 09:31:23;;;;;;;6.43;2.10;;;;;;;;;;4951319;28;20077;-65
2024/04/06 09:33:55;;;;;;;7.13;2.05;;;;;;;;;;4968035;28;20130;-65
2024/04/06 09:36:22;;;;;;;7.53;2.13;;;;;;;;;;4968709;28;20097;-65
2024/04/06 09:38:49;;;;;;;4.40;1.77;;;;;;;;;;4951673;28;20075;-65
2024/04/06 09:41:16;;;;;;;4.50;1.90;;;;;;;;;;4972616;28;20503;-65
2024/04/06 09:43:44;;;;;;;7.93;2.20;;;;;;;;;;4951161;29;20043;-65
2024/04/06 09:46:11;;;;;;;5.75;2.20;;;;;;;;;;4951559;28;20050;-65
2024/04/06 09:48:39;;;;;;;5.97;1.75;;;;;;;;;;4952465;28;20378;-65
2024/04/06 09:51:05;;;;;;;7.22;2.28;;;;;;;;;;4951439;28;20078;-65
2024/04/06 09:53:33;;;;;;;4.57;1.63;;;;;;;;;;4969534;28;20130;-65
2024/04/06 09:55:59;;;;;;;4.25;1.88;;;;;;;;;;4966852;28;20508;-65
2024/04/06 09:58:28;;;;;;;9.05;2.10;;;;;;;;;;4951331;28;20045;-65
2024/04/06 10:00:55;;;;;;;5.93;1.90;;;;;;;;;;4952157;28;20091;-65
2024/04/06 10:03:22;;;;;;;5.60;2.20;;;;;;;;;;4952148;28;20110;-65
2024/04/06 10:05:49;;;;;;;5.55;1.63;;;;;;;;;;4950508;28;20072;-65
2024/04/06 10:08:23;;;;;;;4.78;1.60;;;;;;;;;;4951503;28;20118;-65
2024/04/06 10:10:50;;;;;;;4.85;1.83;;;;;;;;;;4951059;28;20055;-65
2024/04/06 10:13:23;;;;;;;5.68;1.65;;;;;;;;;;4969005;28;20459;-65
2024/04/06 10:15:51;;;;;;;4.00;1.75;;;;;;;;;;4968544;28;20051;-65
2024/04/06 10:18:17;;;;;;;4.63;1.58;;;;;;;;;;4967076;28;20050;-65
2024/04/06 10:20:44;;;;;;;5.55;2.08;;;;;;;;;;4948352;28;20126;-65
2024/04/06 10:23:13;;;;;;;5.43;1.58;;;;;;;;;;4968792;28;20046;-66
2024/04/06 10:25:41;;;;;;;6.97;1.70;;;;;;;;;;4962604;28;20101;-63
2024/04/06 10:28:08;;;;;;;4.47;2.13;;;;;;;;;;4964240;28;20125;-65
2024/04/06 10:30:37;;;;;;;4.55;1.90;;;;;;;;;;4965617;28;20543;-65
2024/04/06 10:33:03;;;;;;;5.80;1.75;;;;;;;;;;4958631;28;20113;-65
2024/04/06 10:35:29;;;;;;;7.13;2.30;;;;;;;;;;4964949;28;20093;-65
2024/04/06 10:37:56;;;;;;;5.25;1.73;;;;;;;;;;4962476;28;20421;-65
2024/04/06 10:40:23;;;;;;;5.38;2.40;;;;;;;;;;4963718;28;20165;-65
2024/04/06 10:42:50;;;;;;;7.03;1.92;;;;;;;;;;4962933;28;20174;-65
2024/04/06 10:45:17;;;;;;;7.72;2.80;;;;;;;;;;4949710;28;20431;-65
2024/04/06 10:47:43;;;;;;;6.93;2.15;;;;;;;;;;4945973;28;20530;-65
2024/04/06 10:50:10;;;;;;;7.07;2.10;;;;;;;;;;4948534;28;20071;-66
2024/04/06 10:52:37;;;;;;;5.40;1.75;;;;;;;;;;4943521;28;20449;-66
2024/04/06 10:55:15;;;;;;;5.78;1.92;;;;;;;;;;4946544;28;20043;-65
2024/04/06 10:57:43;;;;;;;7.65;2.20;;;;;;;;;;4949209;28;20518;-65
2024/04/06 11:00:10;;;;;;;4.03;1.73;;;;;;;;;;4969512;28;20121;-65
2024/04/06 11:02:38;;;;;;;5.30;1.70;;;;;;;;;;4969313;28;20126;-65
2024/04/06 11:05:04;;;;;;;5.47;1.70;;;;;;;;;;4971071;28;20173;-66
2024/04/06 11:07:30;;;;;;;4.32;1.70;;;;;;;;;;4969370;28;20478;-65
2024/04/06 11:09:57;;;;;;;7.65;1.75;;;;;;;;;;4970814;28;20093;-66
2024/04/06 11:12:27;;;;;;;6.18;1.60;;;;;;;;;;4971169;28;20383;-65
2024/04/06 11:14:53;;;;;;;7.45;2.08;;;;;;;;;;4952763;28;20105;-66
2024/04/06 11:17:19;;;;;;;6.97;1.80;;;;;;;;;;4970515;28;20059;-66
2024/04/06 11:19:52;;;;;;;4.65;1.30;;;;;;;;;;4971174;28;20038;-66
2024/04/06 11:22:18;;;;;;;7.10;2.30;;;;;;;;;;4952707;28;20157;-66
2024/04/06 11:24:45;;;;;;;5.70;2.63;;;;;;;;;;4972544;28;20047;-66
2024/04/06 11:27:11;;;;;;;3.90;1.50;;;;;;;;;;4967768;28;20122;-66
2024/04/06 11:29:37;;;;;;;3.40;1.60;;;;;;;;;;4952472;28;20063;-65
2024/04/06 11:32:03;;;;;;;4.65;1.60;;;;;;;;;;4968708;28;20053;-66
2024/04/06 11:34:30;;;;;;;6.25;1.70;;;;;;;;;;4952409;28;20491;-65
2024/04/06 11:36:58;;;;;;;6.60;1.83;;;;;;;;;;4968567;28;20061;-66
2024/04/06 11:39:24;;;;;;;5.60;1.60;;;;;;;;;;4954406;28;20050;-66
2024/04/06 11:41:50;;;;;;;5.93;1.80;;;;;;;;;;4954882;28;21434;-66
2024/04/06 11:44:16;;;;;;;3.60;1.63;;;;;;;;;;4967883;28;21336;-66
2024/04/06 11:46:43;;;;;;;6.28;1.83;;;;;;;;;;4967196;28;20081;-66
2024/04/06 11:49:09;;;;;;;10.27;1.98;;;;;;;;;;4952049;28;20054;-66
2024/04/06 11:51:35;;;;;;;4.93;1.85;;;;;;;;;;4953958;28;20100;-66
2024/04/06 11:54:01;;;;;;;4.45;1.63;;;;;;;;;;4968938;28;20134;-66
2024/04/06 11:56:27;;;;;;;7.15;1.70;;;;;;;;;;4966694;28;20383;-66
2024/04/06 11:58:54;;;;;;;5.32;2.08;;;;;;;;;;4967106;28;20082;-66
2024/04/06 12:01:20;;;;;;;3.60;1.77;;;;;;;;;;4954265;28;20142;-64
2024/04/06 12:03:46;;;;;;;5.47;1.50;;;;;;;;;;4950528;28;20077;-65
2024/04/06 12:06:16;;;;;;;5.07;1.83;;;;;;;;;;4967358;28;20039;-66
2024/04/06 12:08:43;;;;;;;6.47;2.03;;;;;;;;;;4967544;28;20095;-64
2024/04/06 12:11:09;;;;;;;7.68;1.98;;;;;;;;;;4964342;28;20047;-66
2024/04/06 12:13:35;;;;;;;4.78;1.65;;;;;;;;;;4950441;28;20113;-66
2024/04/06 12:16:02;;;;;;;5.68;1.83;;;;;;;;;;4949735;28;20050;-64
2024/04/06 12:18:28;;;;;;;5.10;1.92;;;;;;;;;;4949009;28;20247;-64
2024/04/06 12:20:54;;;;;;;4.32;1.58;;;;;;;;;;4945984;28;20046;-66
2024/04/06 12:23:20;;;;;;;5.45;1.50;;;;;;;;;;4965107;28;20043;-66
2024/04/06 12:25:46;;;;;;;5.18;1.40;;;;;;;;;;4959653;28;20047;-66
2024/04/06 12:28:13;;;;;;;4.88;1.90;;;;;;;;;;4965538;28;20384;-64
2024/04/06 12:30:39;;;;;;;4.88;1.63;;;;;;;;;;4949309;28;20109;-64
2024/04/06 12:33:05;;;;;;;4.40;1.50;;;;;;;;;;4950090;28;20141;-64
2024/04/06 12:35:31;;;;;;;5.68;1.73;;;;;;;;;;4964312;28;20043;-64
2024/04/06 12:37:57;;;;;;;6.68;1.75;;;;;;;;;;4950557;28;20116;-66
2024/04/06 12:40:25;;;;;;;3.83;1.40;;;;;;;;;;4949570;28;20050;-66
2024/04/06 12:42:53;;;;;;;7.40;1.90;;;;;;;;;;4963314;28;20363;-66
2024/04/06 12:45:19;;;;;;;7.55;1.88;;;;;;;;;;4949845;28;20431;-66
2024/04/06 12:47:45;;;;;;;6.65;1.83;;;;;;;;;;4947930;28;20058;-66
2024/04/06 12:50:12;;;;;;;5.60;1.70;;;;;;;;;;4936567;28;20144;-64
2024/04/06 12:52:38;;;;;;;5.53;1.27;;;;;;;;;;4961520;28;20054;-64
2024/04/06 12:55:04;;;;;;;3.55;1.35;;;;;;;;;;4947721;28;20054;-64
2024/04/06 12:57:39;;;;;;;6.40;1.52;;;;;;;;;;4962782;28;20436;-64
2024/04/06 13:00:06;;;;;;;3.80;1.52;;;;;;;;;;4962383;28;20050;-64
2024/04/06 13:02:34;;;;;;;8.13;1.52;;;;;;;;;;4960504;28;20053;-64
2024/04/06 13:05:00;;;;;;;6.32;1.80;;;;;;;;;;4966730;28;20076;-64
2024/04/06 13:07:27;;;;;;;4.25;1.45;;;;;;;;;;4950238;28;20051;-64
2024/04/06 13:09:54;;;;;;;4.95;1.52;;;;;;;;;;4946392;28;20095;-64
2024/04/06 13:12:24;;;;;;;7.47;1.80;;;;;;;;;;4962680;28;20043;-64
2024/04/06 13:14:51;;;;;;;5.32;1.63;;;;;;;;;;4949222;28;20039;-64
2024/04/06 13:17:18;;;;;;;4.60;1.48;;;;;;;;;;4963215;28;20130;-64
2024/04/06 13:19:44;;;;;;;5.47;1.65;;;;;;;;;;4964879;28;20442;-64
2024/04/06 13:22:10;;;;;;;8.25;1.60;;;;;;;;;;4965802;28;20058;-64
2024/04/06 13:24:36;;;;;;;6.15;1.65;;;;;;;;;;4950162;28;20043;-65
2024/04/06 13:27:02;;;;;;;6.93;2.08;;;;;;;;;;4966797;28;20138;-65
2024/04/06 13:29:30;;;;;;;6.80;1.73;;;;;;;;;;4964794;28;20483;-65
2024/04/06 13:31:56;;;;;;;5.93;1.75;;;;;;;;;;4948683;28;20487;-65
2024/04/06 13:34:23;;;;;;;4.07;1.45;;;;;;;;;;4948351;28;20129;-65
2024/04/06 13:36:49;;;;;;;4.90;1.70;;;;;;;;;;4949845;28;20054;-65
2024/04/06 13:39:15;;;;;;;5.28;1.90;;;;;;;;;;4950520;28;20419;-66
2024/04/06 13:41:42;;;;;;;7.18;2.10;;;;;;;;;;4949291;28;20206;-65
2024/04/06 13:44:08;;;;;;;6.47;2.45;;;;;;;;;;4963119;28;20503;-65
2024/04/06 13:46:34;;;;;;;5.95;2.30;;;;;;;;;;4964990;28;20109;-65
2024/04/06 13:49:01;;;;;;;8.70;2.58;;;;;;;;;;4943636;28;20043;-65
2024/04/06 13:51:27;;;;;;;6.90;2.40;;;;;;;;;;4966696;28;20533;-65
2024/04/06 13:53:53;;;;;;;5.72;1.95;;;;;;;;;;4949519;28;20103;-65
2024/04/06 13:56:19;;;;;;;9.07;3.28;;;;;;;;;;4964202;28;20057;-65
2024/04/06 13:58:49;;;;;;;5.85;2.28;;;;;;;;;;4947469;28;20086;-66
2024/04/06 14:01:15;;;;;;;8.23;2.78;;;;;;;;;;4965579;28;20042;-66
2024/04/06 14:03:42;;;;;;;7.35;2.35;;;;;;;;;;4955046;28;20079;-66
2024/04/06 14:06:08;;;;;;;8.10;2.53;;;;;;;;;;4966211;28;20043;-66
2024/04/06 14:08:35;;;;;;;6.63;1.95;;;;;;;;;;4949740;28;20054;-65
2024/04/06 14:11:03;;;;;;;5.55;1.90;;;;;;;;;;4947071;28;20125;-65
2024/04/06 14:13:32;;;;;;;6.15;2.00;;;;;;;;;;4949332;28;20185;-65
2024/04/06 14:15:58;;;;;;;4.68;1.60;;;;;;;;;;4965388;28;20118;-65
2024/04/06 14:18:24;;;;;;;3.13;1.23;;;;;;;;;;4965568;28;20034;-65
2024/04/06 14:20:51;;;;;;;6.07;1.88;;;;;;;;;;4965652;28;20133;-65
2024/04/06 14:23:17;;;;;;;6.43;1.50;;;;;;;;;;4948343;28;20069;-65
2024/04/06 14:25:45;;;;;;;5.38;1.50;;;;;;;;;;4965088;28;20042;-65
2024/04/06 14:28:11;;;;;;;9.25;1.27;;;;;;;;;;4965694;28;20038;-65
2024/04/06 14:30:37;;;;;;;5.00;1.30;;;;;;;;;;4964275;28;20043;-65